Time;durP1;ratioP1;P1;durP2;ratioP2;P2;SDS_P1;SDS_P2;PMS_P1;PMS_P2;Temp;Humidity;BMP_temperature;BMP_pressure;BME280_temperature;BME280_humidity;BME280_pressure;Samples;Min_cycle;Max_cycle;Signal;HPM_P1;HPM_P2
2022/10/06 00:00:36;;;;;;;11.90;1.95;;;;;;;12.42;88.67;102108.66;5050536;28;20044;-82
2022/10/06 00:03:02;;;;;;;7.97;1.90;;;;;;;12.43;88.92;102117.53;5052959;28;20044;-82
2022/10/06 00:05:28;;;;;;;7.05;1.73;;;;;;;12.39;89.03;102132.88;5055147;28;20022;-82
2022/10/06 00:07:54;;;;;;;11.43;1.88;;;;;;;12.40;89.57;102137.22;5062879;28;20434;-82
2022/10/06 00:10:20;;;;;;;10.13;2.22;;;;;;;12.36;89.35;102136.56;5051449;28;20036;-82
2022/10/06 00:12:48;;;;;;;8.63;2.10;;;;;;;12.33;89.67;102138.56;5060662;28;20033;-82
2022/10/06 00:15:20;;;;;;;11.27;2.08;;;;;;;12.33;89.84;102154.56;5049977;28;20017;-82
2022/10/06 00:17:46;;;;;;;7.95;1.77;;;;;;;12.30;89.55;102160.94;5053540;28;20104;-82
2022/10/06 00:20:11;;;;;;;8.07;1.90;;;;;;;12.30;90.06;102162.75;5055386;28;20063;-83
2022/10/06 00:22:43;;;;;;;7.85;2.00;;;;;;;12.11;89.77;102136.41;5057055;28;20029;-82
2022/10/06 00:25:14;;;;;;;12.18;2.17;;;;;;;12.21;90.76;102170.34;5045845;28;20468;-82
2022/10/06 00:27:42;;;;;;;8.02;1.90;;;;;;;12.16;90.67;102164.47;5056611;28;20055;-82
2022/10/06 00:30:10;;;;;;;6.05;1.95;;;;;;;12.15;90.39;102169.88;5056650;28;20032;-82
2022/10/06 00:32:36;;;;;;;7.50;1.63;;;;;;;12.17;90.89;102189.28;5042979;28;20133;-82
2022/10/06 00:35:02;;;;;;;8.50;1.80;;;;;;;12.13;91.57;102179.78;5055308;28;20107;-82
2022/10/06 00:37:33;;;;;;;5.20;1.60;;;;;;;12.10;91.14;102191.47;5056131;28;20064;-82
2022/10/06 00:39:59;;;;;;;9.18;1.90;;;;;;;12.11;91.43;102189.69;5053007;28;20059;-82
2022/10/06 00:42:30;;;;;;;7.10;1.98;;;;;;;12.07;91.71;102189.00;5052765;28;20052;-82
2022/10/06 00:45:01;;;;;;;9.38;2.15;;;;;;;12.07;90.66;102198.78;5056525;28;20025;-82
2022/10/06 00:47:29;;;;;;;11.10;1.83;;;;;;;12.05;91.00;102196.22;5052186;28;20526;-82
2022/10/06 00:49:55;;;;;;;8.57;2.10;;;;;;;12.00;91.20;102200.97;5047674;28;20502;-82
2022/10/06 00:52:24;;;;;;;8.27;2.10;;;;;;;11.99;91.20;102202.78;5050407;28;20132;-82
2022/10/06 00:54:50;;;;;;;13.15;2.72;;;;;;;11.97;90.66;102198.50;5056995;28;20479;-82
2022/10/06 00:57:18;;;;;;;15.15;2.33;;;;;;;11.97;90.77;102212.69;5050893;28;20465;-82
2022/10/06 00:59:43;;;;;;;9.35;2.00;;;;;;;11.94;90.13;102209.31;5054557;28;20476;-82
2022/10/06 01:02:16;;;;;;;7.88;1.90;;;;;;;11.86;90.52;102212.44;5054143;28;20028;-82
2022/10/06 01:04:46;;;;;;;12.20;2.47;;;;;;;11.90;89.78;102219.28;5070026;28;20029;-82
2022/10/06 01:07:12;;;;;;;9.70;1.80;;;;;;;11.88;90.19;102221.19;5055717;28;20384;-82
2022/10/06 01:09:38;;;;;;;9.02;1.85;;;;;;;11.84;89.73;102222.34;5049689;28;20044;-82
2022/10/06 01:12:07;;;;;;;10.60;2.40;;;;;;;11.83;89.24;102226.78;5055556;28;20032;-82
2022/10/06 01:14:35;;;;;;;11.77;2.47;;;;;;;11.80;89.06;102232.28;5055758;28;20036;-82
2022/10/06 01:17:07;;;;;;;8.00;1.93;;;;;;;11.78;89.86;102242.16;5066279;28;20024;-82
2022/10/06 01:19:42;;;;;;;9.80;1.98;;;;;;;11.78;88.89;102252.81;5055770;28;20267;-82
2022/10/06 01:22:10;;;;;;;13.13;2.30;;;;;;;11.75;88.70;102253.00;5056230;28;20109;-82
2022/10/06 01:24:35;;;;;;;7.82;2.08;;;;;;;11.73;88.80;102257.56;5054618;28;20032;-82
2022/10/06 01:27:03;;;;;;;12.75;2.22;;;;;;;11.66;88.91;102249.06;5055072;28;20380;-83
2022/10/06 01:29:31;;;;;;;10.57;2.15;;;;;;;11.67;88.69;102260.56;5044127;28;20497;-82
2022/10/06 01:31:57;;;;;;;9.93;2.20;;;;;;;11.65;88.41;102265.97;5054013;28;20100;-82
2022/10/06 01:34:23;;;;;;;6.65;1.70;;;;;;;11.68;89.24;102277.41;5055527;28;20028;-82
2022/10/06 01:36:48;;;;;;;12.30;2.25;;;;;;;11.65;88.71;102278.44;5052462;28;20041;-82
2022/10/06 01:39:13;;;;;;;13.40;2.40;;;;;;;11.61;88.86;102264.47;5052833;28;20017;-82
2022/10/06 01:41:39;;;;;;;8.10;2.10;;;;;;;11.63;88.62;102283.00;5055313;28;20082;-82
2022/10/06 01:44:04;;;;;;;16.05;2.33;;;;;;;11.62;88.67;102286.59;5051836;28;20052;-82
2022/10/06 01:46:29;;;;;;;13.40;2.20;;;;;;;11.58;88.37;102287.72;5054733;28;20033;-82
2022/10/06 01:48:55;;;;;;;11.82;2.38;;;;;;;11.59;88.65;102289.44;5053342;28;20025;-82
2022/10/06 01:51:20;;;;;;;13.23;2.28;;;;;;;11.55;88.21;102293.22;5054876;28;20036;-82
2022/10/06 01:53:45;;;;;;;9.02;2.10;;;;;;;11.55;87.92;102298.56;5052601;28;20041;-82
2022/10/06 01:56:11;;;;;;;9.25;2.00;;;;;;;11.53;87.84;102300.44;5065460;28;20029;-82
2022/10/06 01:58:36;;;;;;;10.90;2.58;;;;;;;11.53;87.31;102303.97;5057270;28;20025;-81
2022/10/06 02:01:06;;;;;;;10.65;2.42;;;;;;;11.53;88.13;102300.44;5053073;28;20064;-82
2022/10/06 02:03:36;;;;;;;12.57;2.75;;;;;;;11.48;87.24;102306.03;5054673;28;20411;-82
2022/10/06 02:06:02;;;;;;;13.73;2.28;;;;;;;11.43;87.72;102300.13;5048225;28;20372;-82
2022/10/06 02:08:27;;;;;;;13.98;3.10;;;;;;;11.41;87.98;102300.19;5049856;28;20036;-82
2022/10/06 02:10:52;;;;;;;11.25;2.80;;;;;;;11.41;87.79;102313.50;5053402;28;20037;-82
2022/10/06 02:13:18;;;;;;;13.30;2.70;;;;;;;11.39;88.11;102309.19;5054411;28;20029;-81
2022/10/06 02:15:44;;;;;;;13.75;2.60;;;;;;;11.37;88.04;102316.41;5053136;28;20025;-82
2022/10/06 02:18:09;;;;;;;12.65;2.70;;;;;;;11.36;87.93;102315.56;5050202;28;20037;-82
2022/10/06 02:20:35;;;;;;;11.07;2.40;;;;;;;11.34;87.91;102328.09;5054401;28;20048;-82
2022/10/06 02:23:02;;;;;;;13.15;2.60;;;;;;;11.29;86.97;102324.81;5050892;28;20032;-81
2022/10/06 02:25:28;;;;;;;12.35;2.42;;;;;;;11.30;87.52;102335.38;5054495;28;20547;-81
2022/10/06 02:27:53;;;;;;;15.50;2.70;;;;;;;11.25;87.15;102332.09;5051138;28;20025;-81
2022/10/06 02:30:19;;;;;;;11.23;2.97;;;;;;;11.26;88.10;102335.66;5045085;28;20033;-81
2022/10/06 02:32:44;;;;;;;13.15;2.63;;;;;;;11.21;87.94;102346.53;5054177;28;20392;-81
2022/10/06 02:35:13;;;;;;;13.63;2.78;;;;;;;11.13;88.14;102334.63;5050748;28;20037;-81
2022/10/06 02:37:41;;;;;;;14.68;2.65;;;;;;;11.17;88.59;102352.94;5051994;28;20519;-81
2022/10/06 02:40:07;;;;;;;12.27;2.50;;;;;;;11.14;88.45;102358.47;5052464;28;20024;-81
2022/10/06 02:42:37;;;;;;;14.57;2.83;;;;;;;11.11;88.59;102353.31;5053969;28;20028;-81
2022/10/06 02:45:08;;;;;;;;;;;;;;;11.21;87.92;102365.16;5044321;28;20025;-82
2022/10/06 02:47:35;;;;;;;13.73;2.67;;;;;;;11.10;88.79;102364.88;5053209;28;20058;-81
2022/10/06 02:50:04;;;;;;;11.27;2.72;;;;;;;11.09;88.84;102371.13;5054399;28;20138;-82
2022/10/06 02:52:35;;;;;;;18.17;2.88;;;;;;;11.06;89.34;102372.16;5042664;28;20041;-81
2022/10/06 02:55:05;;;;;;;12.98;2.47;;;;;;;11.00;88.73;102377.81;5053656;28;20021;-81
2022/10/06 02:57:30;;;;;;;10.30;3.00;;;;;;;11.01;89.44;102386.66;5052385;28;20021;-81
2022/10/06 02:59:56;;;;;;;13.38;2.70;;;;;;;10.97;89.22;102382.44;5053684;28;20468;-81
2022/10/06 03:02:21;;;;;;;9.93;2.20;;;;;;;10.97;89.36;102393.91;5052771;28;20479;-81
2022/10/06 03:04:47;;;;;;;18.30;3.15;;;;;;;10.93;89.94;102389.72;5053188;28;20032;-81
2022/10/06 03:07:13;;;;;;;12.48;2.60;;;;;;;10.92;89.43;102401.28;5053012;28;20392;-81
2022/10/06 03:09:38;;;;;;;13.93;2.60;;;;;;;10.89;89.45;102401.44;5053368;28;20036;-81
2022/10/06 03:12:03;;;;;;;10.93;2.60;;;;;;;10.87;89.81;102411.31;5048367;28;20037;-81
2022/10/06 03:14:29;;;;;;;11.50;2.65;;;;;;;10.78;90.07;102399.38;5052095;28;20024;-81
2022/10/06 03:16:55;;;;;;;12.27;2.53;;;;;;;10.83;89.99;102417.72;5053246;28;20471;-81
2022/10/06 03:19:20;;;;;;;13.20;2.75;;;;;;;10.74;90.15;102414.63;5050791;28;20065;-81
2022/10/06 03:21:46;;;;;;;13.18;2.40;;;;;;;10.78;89.83;102419.78;5053495;28;20044;-81
2022/10/06 03:24:11;;;;;;;12.18;2.63;;;;;;;10.75;89.68;102420.78;5042019;28;20108;-81
2022/10/06 03:26:42;;;;;;;17.48;3.03;;;;;;;10.70;90.01;102425.47;5053272;28;20412;-81
2022/10/06 03:29:08;;;;;;;12.60;3.13;;;;;;;10.68;90.04;102422.91;5053043;28;20025;-81
2022/10/06 03:31:34;;;;;;;14.32;2.65;;;;;;;10.66;90.40;102430.09;5052537;28;20033;-81
2022/10/06 03:33:59;;;;;;;12.73;2.63;;;;;;;10.64;90.62;102434.66;5053325;28;20033;-81
2022/10/06 03:36:28;;;;;;;12.82;2.63;;;;;;;10.55;90.91;102433.28;5050236;28;20472;-81
2022/10/06 03:38:53;;;;;;;12.48;2.70;;;;;;;10.61;90.92;102447.19;5060442;28;20039;-81
2022/10/06 03:41:20;;;;;;;11.52;2.40;;;;;;;10.59;90.11;102446.41;5051993;28;20017;-81
2022/10/06 03:43:47;;;;;;;10.35;2.40;;;;;;;10.54;90.28;102452.84;5039397;28;20029;-81
2022/10/06 03:46:15;;;;;;;14.65;2.90;;;;;;;10.47;90.75;102445.25;5052920;28;20025;-81
2022/10/06 03:48:41;;;;;;;8.63;2.92;;;;;;;10.49;90.85;102451.34;5043234;28;20488;-81
2022/10/06 03:51:10;;;;;;;15.75;2.95;;;;;;;10.47;90.35;102458.53;5057275;28;20027;-81
2022/10/06 03:53:36;;;;;;;11.65;2.58;;;;;;;10.46;90.26;102456.81;5061263;28;20048;-81
2022/10/06 03:56:04;;;;;;;12.40;2.72;;;;;;;10.43;90.43;102463.16;5052752;28;20024;-81
2022/10/06 03:58:31;;;;;;;10.65;2.65;;;;;;;10.35;90.11;102460.00;5051173;28;20037;-81
2022/10/06 04:01:08;;;;;;;10.73;2.95;;;;;;;10.40;90.49;102481.03;5042178;28;20029;-81
2022/10/06 04:03:34;;;;;;;14.55;2.90;;;;;;;10.35;89.97;102481.25;5052105;28;20029;-81
2022/10/06 04:06:02;;;;;;;10.65;2.83;;;;;;;10.33;90.12;102489.31;5063590;28;20032;-81
2022/10/06 04:08:29;;;;;;;15.13;3.13;;;;;;;10.31;89.81;102492.94;5050183;28;20066;-81
2022/10/06 04:11:03;;;;;;;13.18;3.22;;;;;;;10.26;90.94;102495.81;5052795;28;20025;-81
2022/10/06 04:13:29;;;;;;;14.27;3.30;;;;;;;10.26;90.02;102503.78;5062904;28;20514;-81
2022/10/06 04:15:54;;;;;;;14.38;3.40;;;;;;;10.18;89.94;102496.19;5039564;28;20057;-81
2022/10/06 04:18:19;;;;;;;15.40;2.92;;;;;;;10.22;90.24;102509.31;5050880;28;20463;-81
2022/10/06 04:20:44;;;;;;;17.98;2.97;;;;;;;10.18;89.86;102513.91;5052692;28;20025;-81
2022/10/06 04:23:10;;;;;;;15.43;3.08;;;;;;;10.13;89.51;102508.81;5051500;28;20028;-81
2022/10/06 04:25:35;;;;;;;10.85;2.55;;;;;;;10.01;89.94;102490.84;5053160;28;20079;-81
2022/10/06 04:28:00;;;;;;;14.80;3.13;;;;;;;10.09;90.11;102509.03;5051058;28;20104;-81
2022/10/06 04:30:26;;;;;;;14.80;2.53;;;;;;;10.08;90.48;102529.44;5044100;28;20031;-81
2022/10/06 04:32:52;;;;;;;14.63;2.90;;;;;;;10.02;90.86;102520.91;5052534;28;20036;-81
2022/10/06 04:35:18;;;;;;;12.88;3.28;;;;;;;10.03;90.63;102531.44;5052770;28;20036;-81
2022/10/06 04:37:43;;;;;;;16.63;3.42;;;;;;;10.02;90.39;102528.84;5050747;28;20557;-81
2022/10/06 04:40:09;;;;;;;18.80;3.38;;;;;;;9.93;90.32;102531.00;5051494;28;20463;-81
2022/10/06 04:42:35;;;;;;;16.75;2.67;;;;;;;9.93;90.03;102528.34;5051224;28;20033;-81
2022/10/06 04:45:01;;;;;;;14.05;3.00;;;;;;;9.94;90.38;102537.16;5052495;28;20502;-81
2022/10/06 04:47:27;;;;;;;12.95;3.10;;;;;;;9.91;90.22;102537.31;5052549;28;20017;-81
2022/10/06 04:49:52;;;;;;;13.85;2.80;;;;;;;9.92;90.20;102549.66;5052478;28;20025;-81
2022/10/06 04:52:17;;;;;;;11.85;2.80;;;;;;;9.88;90.55;102546.28;5046099;28;20357;-82
2022/10/06 04:54:43;;;;;;;16.25;2.90;;;;;;;9.82;90.22;102552.75;5052379;28;20463;-82
2022/10/06 04:57:08;;;;;;;13.93;2.92;;;;;;;9.82;90.48;102541.25;5051987;28;20025;-82
2022/10/06 05:02:19;;;;;;;14.43;2.83;;;;;;;9.76;90.71;102554.84;5051818;28;20036;-82
2022/10/06 05:04:44;;;;;;;17.45;3.33;;;;;;;9.75;90.59;102561.91;5054166;28;20029;-82
2022/10/06 05:07:09;;;;;;;16.15;2.97;;;;;;;9.70;90.06;102560.41;5055702;28;20234;-82
2022/10/06 05:09:35;;;;;;;18.80;3.60;;;;;;;9.68;90.63;102572.88;5055898;28;20503;-82
2022/10/06 05:12:00;;;;;;;16.80;3.28;;;;;;;9.64;90.39;102577.44;5055540;28;20029;-82
2022/10/06 05:14:25;;;;;;;13.95;3.65;;;;;;;9.65;90.66;102580.97;5050036;28;20472;-82
2022/10/06 05:16:54;;;;;;;21.40;4.32;;;;;;;9.44;90.48;102562.41;5050989;28;20108;-82
2022/10/06 05:19:19;;;;;;;19.20;3.63;;;;;;;9.57;90.82;102587.47;5056269;28;20052;-82
2022/10/06 05:21:44;;;;;;;15.35;3.17;;;;;;;9.57;91.13;102592.78;5050661;28;20469;-82
2022/10/06 05:24:10;;;;;;;15.10;3.63;;;;;;;9.54;90.74;102598.25;5049794;28;20468;-82
2022/10/06 05:26:35;;;;;;;19.92;3.72;;;;;;;9.51;90.56;102601.03;5054912;28;20025;-81
2022/10/06 05:29:01;;;;;;;21.65;3.28;;;;;;;9.49;90.87;102600.22;5054832;28;20479;-82
2022/10/06 05:31:30;;;;;;;14.57;3.25;;;;;;;9.48;90.77;102608.25;5062600;28;20104;-81
2022/10/06 05:33:56;;;;;;;19.58;4.13;;;;;;;9.47;90.59;102612.69;5063226;28;20021;-81
2022/10/06 05:36:28;;;;;;;16.80;3.58;;;;;;;9.41;90.84;102610.31;5063211;28;20456;-81
2022/10/06 05:38:54;;;;;;;18.17;3.65;;;;;;;9.41;90.29;102623.59;5056092;28;20396;-82
2022/10/06 05:41:28;;;;;;;16.25;3.65;;;;;;;9.38;90.71;102624.56;5053783;28;20112;-81
2022/10/06 05:43:54;;;;;;;21.17;3.67;;;;;;;9.37;90.30;102629.94;5059802;28;20029;-82
2022/10/06 05:46:28;;;;;;;17.92;3.92;;;;;;;9.34;90.83;102641.53;5053770;28;20033;-82
2022/10/06 05:48:59;;;;;;;19.63;3.25;;;;;;;9.33;90.48;102650.41;5061760;28;20028;-82
2022/10/06 05:51:27;;;;;;;17.63;4.38;;;;;;;9.29;91.01;102648.81;5057192;28;20025;-82
2022/10/06 05:53:52;;;;;;;17.88;3.30;;;;;;;9.25;90.70;102647.22;5058757;28;20036;-83
2022/10/06 05:56:23;;;;;;;18.55;3.88;;;;;;;9.29;90.74;102650.59;5046039;28;20029;-82
2022/10/06 05:58:53;;;;;;;22.60;3.85;;;;;;;9.21;90.85;102650.94;5038812;28;20049;-82
2022/10/06 06:01:24;;;;;;;16.77;3.60;;;;;;;9.25;91.33;102663.97;5050950;28;20070;-82
2022/10/06 06:03:51;;;;;;;15.65;3.53;;;;;;;9.21;91.63;102659.75;5055481;28;20162;-81
2022/10/06 06:06:23;;;;;;;16.85;4.03;;;;;;;9.20;90.91;102658.00;5047723;28;20032;-82
2022/10/06 06:08:57;;;;;;;17.30;3.22;;;;;;;9.22;91.05;102663.25;5041928;28;20159;-81
2022/10/06 06:11:26;;;;;;;17.38;3.35;;;;;;;9.17;90.85;102670.53;5054696;28;20036;-82
2022/10/06 06:13:55;;;;;;;14.68;3.65;;;;;;;9.15;91.02;102677.69;5053255;28;20427;-81
2022/10/06 06:16:20;;;;;;;19.10;4.10;;;;;;;9.16;91.16;102677.63;5044215;28;20025;-82
2022/10/06 06:18:46;;;;;;;18.40;3.60;;;;;;;9.14;91.39;102670.66;5067430;28;20544;-82
2022/10/06 06:21:11;;;;;;;20.40;3.55;;;;;;;9.14;91.57;102668.00;5049159;28;20028;-81
2022/10/06 06:23:40;;;;;;;14.35;3.42;;;;;;;9.14;91.26;102684.78;5053799;28;20407;-82
2022/10/06 06:26:08;;;;;;;20.02;3.97;;;;;;;9.11;91.59;102674.31;5054393;28;20036;-81
2022/10/06 06:28:35;;;;;;;15.98;3.42;;;;;;;9.16;91.42;102685.59;5054126;28;20048;-81
2022/10/06 06:31:03;;;;;;;20.52;4.20;;;;;;;9.16;91.35;102682.06;5054365;28;20083;-82
2022/10/06 06:33:30;;;;;;;20.45;3.50;;;;;;;9.12;91.34;102673.38;5053526;28;20412;-81
2022/10/06 06:35:56;;;;;;;18.95;3.30;;;;;;;9.16;91.83;102692.66;5054000;28;20036;-82
2022/10/06 06:38:22;;;;;;;23.23;4.07;;;;;;;9.18;91.76;102696.13;5060426;28;20037;-82
2022/10/06 06:40:48;;;;;;;15.13;3.10;;;;;;;9.13;91.56;102692.81;5049900;28;20044;-81
2022/10/06 06:43:13;;;;;;;19.35;3.72;;;;;;;9.16;91.42;102703.28;5047379;28;20422;-81
2022/10/06 06:45:38;;;;;;;23.63;4.05;;;;;;;9.18;91.46;102715.56;5056972;28;20036;-82
2022/10/06 06:48:04;;;;;;;19.63;3.60;;;;;;;9.16;91.56;102705.91;5046391;28;20087;-82
2022/10/06 06:50:31;;;;;;;19.50;3.53;;;;;;;9.19;91.50;102721.69;5050914;28;20025;-82
2022/10/06 06:52:56;;;;;;;24.23;4.30;;;;;;;9.20;91.60;102724.28;5053312;28;20048;-82
2022/10/06 06:55:22;;;;;;;21.92;4.15;;;;;;;9.18;91.93;102712.91;5053721;28;20057;-82
2022/10/06 06:57:48;;;;;;;16.30;3.28;;;;;;;9.25;92.14;102724.13;5053757;28;20071;-82
2022/10/06 07:00:15;;;;;;;17.85;4.03;;;;;;;9.19;92.67;102717.28;5053896;28;20068;-83
2022/10/06 07:02:41;;;;;;;20.40;4.32;;;;;;;9.26;92.00;102732.00;5054408;28;20029;-83
2022/10/06 07:05:06;;;;;;;19.08;4.20;;;;;;;9.33;92.17;102742.38;5038827;28;20037;-83
2022/10/06 07:07:31;;;;;;;19.63;3.88;;;;;;;9.34;91.95;102741.44;5047460;28;20064;-81
2022/10/06 07:09:56;;;;;;;16.95;3.83;;;;;;;9.39;92.83;102750.06;5053427;28;20049;-81
2022/10/06 07:12:24;;;;;;;15.23;3.63;;;;;;;9.40;92.10;102752.66;5059216;28;20386;-80
2022/10/06 07:25:46;;;;;;;19.73;3.97;;;;;;;9.62;92.00;102772.97;5049909;28;20044;-81
2022/10/06 07:28:11;;;;;;;24.50;5.05;;;;;;;9.66;92.31;102779.91;5049010;28;20033;-80
2022/10/06 07:30:38;;;;;;;17.58;4.03;;;;;;;9.71;92.13;102779.69;5053284;28;20028;-80
2022/10/06 07:33:07;;;;;;;18.85;4.13;;;;;;;9.72;92.30;102774.31;5046223;28;20029;-79
2022/10/06 07:35:32;;;;;;;21.70;4.32;;;;;;;9.83;92.88;102784.50;5050556;28;20111;-80
2022/10/06 07:38:06;;;;;;;21.00;4.30;;;;;;;9.88;92.21;102792.28;5051780;28;20116;-81
2022/10/06 07:40:32;;;;;;;19.40;4.25;;;;;;;9.92;91.88;102796.50;5043201;28;20472;-81
2022/10/06 07:42:58;;;;;;;21.13;4.10;;;;;;;9.98;91.70;102796.25;5056944;28;20025;-80
2022/10/06 07:45:39;;;;;;;16.70;4.32;;;;;;;10.04;90.63;102795.97;5056818;28;20461;-80
2022/10/06 07:48:13;;;;;;;19.15;3.42;;;;;;;10.16;92.00;102808.72;5052471;28;20035;-81
2022/10/06 07:50:38;;;;;;;23.55;4.15;;;;;;;10.26;91.77;102817.16;5053307;28;20029;-81
2022/10/06 07:53:07;;;;;;;16.58;3.97;;;;;;;10.31;91.97;102806.34;5046915;28;20124;-81
2022/10/06 07:55:38;;;;;;;13.43;3.60;;;;;;;10.45;91.19;102813.72;5035603;28;20075;-81
2022/10/06 07:58:24;;;;;;;21.75;4.43;;;;;;;10.55;91.49;102815.88;5046799;28;20064;-82
2022/10/06 08:00:53;;;;;;;17.95;3.67;;;;;;;10.66;91.04;102811.91;5046173;28;20446;-81
2022/10/06 08:03:19;;;;;;;18.10;4.25;;;;;;;10.82;89.43;102820.03;5050765;28;20037;-81
2022/10/06 08:05:47;;;;;;;15.27;3.88;;;;;;;11.00;89.63;102821.84;5051280;28;20024;-80
2022/10/06 08:08:13;;;;;;;19.55;3.95;;;;;;;11.15;89.17;102820.25;5056228;28;20020;-80
2022/10/06 08:10:40;;;;;;;16.65;4.18;;;;;;;11.32;87.35;102823.91;5070410;28;20040;-80
2022/10/06 08:13:06;;;;;;;23.95;4.18;;;;;;;11.51;87.77;102824.75;5059089;28;20063;-81
2022/10/06 08:15:32;;;;;;;19.25;4.75;;;;;;;11.66;87.18;102829.31;5052017;28;20025;-81
2022/10/06 08:17:59;;;;;;;16.65;3.90;;;;;;;11.85;85.29;102836.38;5052965;28;20454;-81
2022/10/06 08:20:26;;;;;;;17.73;4.28;;;;;;;11.97;84.74;102841.13;5049073;28;20025;-82
2022/10/06 08:22:52;;;;;;;18.92;4.97;;;;;;;12.18;84.94;102838.31;5042085;28;20026;-81
2022/10/06 08:25:17;;;;;;;21.00;4.28;;;;;;;12.29;84.24;102845.72;5038711;28;20030;-82
2022/10/06 08:27:43;;;;;;;13.93;3.53;;;;;;;12.55;84.03;102855.03;5033372;28;20021;-81
2022/10/06 08:30:09;;;;;;;20.33;3.55;;;;;;;12.67;84.37;102850.84;5050330;28;20337;-82
2022/10/06 08:32:34;;;;;;;16.48;4.60;;;;;;;12.86;83.96;102859.59;5053517;28;20040;-82
2022/10/06 08:35:00;;;;;;;17.92;3.38;;;;;;;13.05;82.12;102854.09;5053188;28;20013;-82
2022/10/06 08:37:26;;;;;;;15.30;3.20;;;;;;;13.13;80.58;102859.03;5053351;28;20021;-81
2022/10/06 08:39:54;;;;;;;14.35;3.45;;;;;;;13.36;80.57;102856.94;5055080;28;20115;-83
2022/10/06 08:42:40;;;;;;;16.55;3.63;;;;;;;13.47;80.47;102868.72;5057360;28;20053;-82
2022/10/06 08:45:13;;;;;;;13.10;3.88;;;;;;;13.61;79.02;102869.75;5057085;28;20087;-82
2022/10/06 08:47:48;;;;;;;11.38;3.17;;;;;;;13.86;78.90;102874.53;5056906;28;20029;-81
2022/10/06 08:50:14;;;;;;;18.02;4.20;;;;;;;14.03;78.34;102870.88;5057523;28;20025;-82
2022/10/06 08:53:04;;;;;;;13.05;3.33;;;;;;;14.22;76.90;102876.84;5056477;28;21503;-82
2022/10/06 08:55:40;;;;;;;15.57;3.70;;;;;;;14.39;75.96;102875.81;5048950;28;20029;-82
2022/10/06 08:58:43;;;;;;;14.30;3.28;;;;;;;14.55;76.07;102883.75;5046022;28;20017;-82
2022/10/06 09:01:18;;;;;;;21.10;3.67;;;;;;;14.64;74.14;102884.19;5049329;28;20380;-82
2022/10/06 09:03:47;;;;;;;17.38;3.70;;;;;;;14.77;73.58;102890.50;5056745;28;20075;-82
2022/10/06 09:06:39;;;;;;;18.95;3.63;;;;;;;14.85;73.49;102890.88;5057244;28;20017;-82
2022/10/06 09:09:16;;;;;;;17.50;4.18;;;;;;;14.94;72.68;102897.50;5036894;28;20036;-83
2022/10/06 09:11:59;;;;;;;22.63;3.47;;;;;;;15.01;71.55;102892.63;5052613;28;20025;-83
2022/10/06 09:14:51;;;;;;;14.73;3.80;;;;;;;15.18;72.16;102897.75;5056632;28;20384;-82
2022/10/06 09:17:26;;;;;;;17.08;3.10;;;;;;;15.29;71.88;102903.28;5036502;28;20447;-83
2022/10/06 09:20:18;;;;;;;12.00;3.20;;;;;;;15.40;71.33;102904.41;5053820;28;20025;-82
2022/10/06 09:22:47;;;;;;;13.43;3.60;;;;;;;15.47;69.71;102911.97;5056747;28;20029;-82
2022/10/06 09:25:21;;;;;;;14.13;3.80;;;;;;;15.47;68.95;102906.63;5056216;28;20384;-82
2022/10/06 09:27:51;;;;;;;15.88;3.65;;;;;;;15.53;67.93;102916.06;5055051;28;20287;-82
2022/10/06 09:30:17;;;;;;;19.90;3.33;;;;;;;15.59;67.77;102920.16;5056506;28;20036;-82
2022/10/06 09:32:46;;;;;;;17.10;3.67;;;;;;;15.69;68.77;102908.75;5055988;28;20025;-82
2022/10/06 09:35:18;;;;;;;16.27;3.07;;;;;;;15.96;69.38;102912.44;5054197;28;20479;-82
2022/10/06 09:37:56;;;;;;;14.23;3.45;;;;;;;16.12;69.35;102913.13;5054192;28;20281;-82
2022/10/06 09:40:38;;;;;;;12.45;3.20;;;;;;;16.19;68.31;102919.78;5056210;28;20367;-82
2022/10/06 09:43:16;;;;;;;13.15;3.30;;;;;;;16.32;67.52;102927.84;5050194;28;20119;-82
2022/10/06 09:45:42;;;;;;;12.00;3.17;;;;;;;16.42;65.13;102930.75;5055894;28;20025;-82
2022/10/06 09:48:19;;;;;;;11.73;3.03;;;;;;;16.35;64.21;102914.22;5055819;28;20036;-81
2022/10/06 09:51:06;;;;;;;13.85;3.38;;;;;;;16.54;66.37;102921.88;5054132;28;20448;-82
2022/10/06 09:53:31;;;;;;;14.73;3.28;;;;;;;16.76;64.29;102929.28;5056142;28;20095;-83
2022/10/06 09:55:56;;;;;;;14.10;3.27;;;;;;;16.76;62.76;102931.13;5055664;28;20472;-82
2022/10/06 09:58:33;;;;;;;13.60;2.78;;;;;;;16.97;63.35;102939.50;5055550;28;20283;-83
2022/10/06 10:01:05;;;;;;;13.32;3.13;;;;;;;16.88;60.96;102930.28;5054604;28;20437;-82
2022/10/06 10:03:50;;;;;;;18.38;3.00;;;;;;;16.94;62.87;102932.53;5045950;28;20052;-82
2022/10/06 10:06:35;;;;;;;16.52;3.03;;;;;;;16.86;62.97;102918.81;5055304;28;20032;-82
2022/10/06 10:09:22;;;;;;;12.20;2.72;;;;;;;17.03;63.92;102936.38;5041533;28;20087;-81
2022/10/06 10:14:51;;;;;;;13.40;2.80;;;;;;;17.20;60.22;102933.38;5058507;28;20075;-82
2022/10/06 10:17:31;;;;;;;11.27;2.97;;;;;;;17.32;60.89;102933.44;5054880;28;20025;-82
2022/10/06 10:19:57;;;;;;;9.57;2.35;;;;;;;17.25;59.46;102940.22;5054426;28;20376;-82
2022/10/06 10:22:38;;;;;;;8.82;2.35;;;;;;;17.47;60.96;102939.53;5044488;28;20060;-82
2022/10/06 10:25:25;;;;;;;14.10;2.40;;;;;;;17.47;60.98;102944.91;5051056;28;20017;-82
2022/10/06 10:28:16;;;;;;;11.77;2.42;;;;;;;17.69;61.82;102938.84;5043163;28;20069;-82
2022/10/06 10:31:19;;;;;;;13.75;2.70;;;;;;;17.96;60.57;102940.47;5039490;28;20037;-82
2022/10/06 10:33:55;;;;;;;8.13;2.05;;;;;;;17.90;55.93;102931.91;5039163;28;20029;-81
2022/10/06 10:36:31;;;;;;;12.82;2.28;;;;;;;17.80;55.94;102935.34;5072991;28;20119;-82
2022/10/06 10:38:57;;;;;;;12.02;2.42;;;;;;;17.89;54.94;102940.09;5070779;28;20039;-81
2022/10/06 10:41:33;;;;;;;7.90;2.28;;;;;;;17.84;52.59;102937.69;5045866;28;20037;-81
2022/10/06 10:44:08;;;;;;;10.80;2.30;;;;;;;17.91;55.23;102943.50;5044342;28;20113;-82
2022/10/06 10:47:00;;;;;;;11.77;2.20;;;;;;;17.91;52.64;102941.66;5051317;28;20045;-80
2022/10/06 10:49:29;;;;;;;7.95;2.35;;;;;;;18.13;53.90;102948.13;5053730;28;20036;-82
2022/10/06 10:52:04;;;;;;;11.02;2.83;;;;;;;18.12;51.82;102943.75;5064102;28;20045;-82
2022/10/06 10:54:53;;;;;;;9.25;2.30;;;;;;;18.14;55.41;102931.03;5042500;28;20405;-82
2022/10/06 10:57:23;;;;;;;11.40;2.60;;;;;;;18.28;52.51;102935.34;5062231;28;20045;-82
2022/10/06 10:59:58;;;;;;;5.57;2.10;;;;;;;18.37;53.65;102941.84;5064205;28;20036;-82
2022/10/06 11:02:24;;;;;;;12.80;2.20;;;;;;;18.46;53.27;102942.00;5039554;28;20049;-82
2022/10/06 11:04:54;;;;;;;11.68;2.50;;;;;;;18.56;52.20;102952.91;5049006;28;20044;-82
2022/10/06 11:07:43;;;;;;;10.52;3.10;;;;;;;18.79;54.08;102952.97;5047305;28;20038;-82
2022/10/06 11:10:15;;;;;;;9.55;2.70;;;;;;;18.78;52.14;102937.78;5048146;28;20403;-82
2022/10/06 11:13:03;;;;;;;10.30;3.08;;;;;;;18.98;54.49;102944.31;5044250;28;20025;-83
2022/10/06 11:15:56;;;;;;;10.30;2.55;;;;;;;19.15;55.70;102943.84;5046136;28;20033;-81
2022/10/06 11:18:40;;;;;;;9.95;2.50;;;;;;;19.29;51.81;102942.72;5048483;28;20388;-82
2022/10/06 11:21:11;;;;;;;11.40;2.50;;;;;;;19.28;51.69;102949.09;5042447;28;20065;-82
2022/10/06 11:23:55;;;;;;;11.25;2.42;;;;;;;19.26;52.14;102952.91;5048124;28;20350;-82
2022/10/06 11:26:43;;;;;;;12.55;2.97;;;;;;;19.36;51.99;102954.72;5053393;28;20107;-81
2022/10/06 11:29:23;;;;;;;9.88;2.58;;;;;;;19.31;50.99;102946.16;5053810;28;20372;-81
2022/10/06 11:32:10;;;;;;;11.95;2.60;;;;;;;19.29;50.32;102950.81;5053701;28;20036;-81
2022/10/06 11:34:35;;;;;;;10.23;2.83;;;;;;;19.23;49.47;102948.59;5054396;28;20525;-81
2022/10/06 11:37:17;;;;;;;8.80;2.30;;;;;;;19.23;51.10;102943.22;5054094;28;20018;-82
2022/10/06 11:40:03;;;;;;;9.93;2.33;;;;;;;19.20;50.79;102938.06;5054024;28;20033;-82
2022/10/06 11:42:46;;;;;;;8.65;2.17;;;;;;;19.19;50.94;102937.22;5052883;28;20158;-81
2022/10/06 11:45:19;;;;;;;11.77;2.75;;;;;;;19.03;51.86;102931.34;5057226;28;20043;-80
2022/10/06 11:47:58;;;;;;;9.10;2.42;;;;;;;19.16;50.42;102947.41;5053693;28;20025;-82
2022/10/06 11:50:39;;;;;;;12.57;2.33;;;;;;;19.16;51.88;102936.63;5053428;28;20147;-81